sensor_id;sensor_type;location;lat;lon;timestamp;pressure;altitude;pressure_sealevel;temperature;humidity
59106;BME280;44891;50.204;8.132;2023-02-15T00:00:27;99627.78;;;-0.32;100.00
59106;BME280;44891;50.204;8.132;2023-02-15T00:04:29;99618.81;;;-0.09;100.00
59106;BME280;44891;50.204;8.132;2023-02-15T00:08:47;99613.09;;;-0.03;100.00
59106;BME280;44891;50.204;8.132;2023-02-15T00:12:49;99609.59;;;0.08;100.00
59106;BME280;44891;50.204;8.132;2023-02-15T00:16:51;99606.84;;;0.19;100.00
59106;BME280;44891;50.204;8.132;2023-02-15T00:20:55;99601.69;;;0.10;100.00
59106;BME280;44891;50.204;8.132;2023-02-15T00:24:58;99596.69;;;0.08;100.00
59106;BME280;44891;50.204;8.132;2023-02-15T00:29:00;99592.44;;;-0.03;100.00
59106;BME280;44891;50.204;8.132;2023-02-15T00:33:02;99591.22;;;-0.08;100.00
59106;BME280;44891;50.204;8.132;2023-02-15T00:37:04;99581.44;;;-0.24;100.00
59106;BME280;44891;50.204;8.132;2023-02-15T00:41:07;99579.00;;;-0.16;100.00
59106;BME280;44891;50.204;8.132;2023-02-15T00:45:09;99573.00;;;0.13;100.00
59106;BME280;44891;50.204;8.132;2023-02-15T00:49:13;99578.69;;;0.26;100.00
59106;BME280;44891;50.204;8.132;2023-02-15T00:53:15;99585.09;;;0.12;100.00
59106;BME280;44891;50.204;8.132;2023-02-15T00:57:18;99577.78;;;0.08;100.00
59106;BME280;44891;50.204;8.132;2023-02-15T01:01:20;99576.81;;;0.09;100.00
59106;BME280;44891;50.204;8.132;2023-02-15T01:05:23;99575.47;;;0.14;100.00
59106;BME280;44891;50.204;8.132;2023-02-15T01:09:25;99580.22;;;-0.01;100.00
59106;BME280;44891;50.204;8.132;2023-02-15T01:13:28;99580.34;;;-0.21;100.00
59106;BME280;44891;50.204;8.132;2023-02-15T01:17:30;99570.03;;;-0.21;100.00
59106;BME280;44891;50.204;8.132;2023-02-15T01:21:32;99574.13;;;0.01;100.00
59106;BME280;44891;50.204;8.132;2023-02-15T01:25:36;99570.84;;;0.08;100.00
59106;BME280;44891;50.204;8.132;2023-02-15T01:29:40;99575.19;;;0.08;100.00
59106;BME280;44891;50.204;8.132;2023-02-15T01:33:41;99576.81;;;0.09;100.00
59106;BME280;44891;50.204;8.132;2023-02-15T01:37:44;99582.53;;;0.03;100.00
59106;BME280;44891;50.204;8.132;2023-02-15T01:41:46;99577.63;;;-0.10;100.00
59106;BME280;44891;50.204;8.132;2023-02-15T01:45:49;99569.75;;;0.20;100.00
59106;BME280;44891;50.204;8.132;2023-02-15T01:49:52;99564.94;;;0.35;100.00
59106;BME280;44891;50.204;8.132;2023-02-15T01:53:56;99556.06;;;0.57;100.00
59106;BME280;44891;50.204;8.132;2023-02-15T01:58:00;99569.53;;;0.61;100.00
59106;BME280;44891;50.204;8.132;2023-02-15T02:02:03;99558.38;;;0.60;100.00
59106;BME280;44891;50.204;8.132;2023-02-15T02:06:07;99543.53;;;0.62;100.00
59106;BME280;44891;50.204;8.132;2023-02-15T02:10:10;99542.47;;;0.55;100.00
59106;BME280;44891;50.204;8.132;2023-02-15T02:14:12;99547.22;;;0.50;100.00
59106;BME280;44891;50.204;8.132;2023-02-15T02:18:22;99544.94;;;0.37;100.00
59106;BME280;44891;50.204;8.132;2023-02-15T02:22:34;99547.91;;;0.52;100.00
59106;BME280;44891;50.204;8.132;2023-02-15T02:26:47;99548.72;;;0.52;100.00
59106;BME280;44891;50.204;8.132;2023-02-15T02:31:01;99549.00;;;0.49;100.00
59106;BME280;44891;50.204;8.132;2023-02-15T02:35:09;99545.25;;;0.34;100.00
59106;BME280;44891;50.204;8.132;2023-02-15T02:39:18;99541.97;;;0.42;100.00
59106;BME280;44891;50.204;8.132;2023-02-15T02:43:25;99548.41;;;0.65;100.00
59106;BME280;44891;50.204;8.132;2023-02-15T02:47:29;99535.59;;;0.73;100.00
59106;BME280;44891;50.204;8.132;2023-02-15T02:51:33;99542.09;;;0.77;100.00
59106;BME280;44891;50.204;8.132;2023-02-15T02:55:36;99539.97;;;0.63;100.00
59106;BME280;44891;50.204;8.132;2023-02-15T02:59:41;99529.94;;;0.50;100.00
59106;BME280;44891;50.204;8.132;2023-02-15T03:03:47;99525.81;;;0.67;100.00
59106;BME280;44891;50.204;8.132;2023-02-15T03:07:52;99510.34;;;0.58;100.00
59106;BME280;44891;50.204;8.132;2023-02-15T03:11:55;99511.94;;;0.68;100.00
59106;BME280;44891;50.204;8.132;2023-02-15T03:15:57;99506.09;;;0.66;100.00
59106;BME280;44891;50.204;8.132;2023-02-15T03:20:18;99489.00;;;0.83;100.00
59106;BME280;44891;50.204;8.132;2023-02-15T03:24:24;99491.44;;;0.85;100.00
59106;BME280;44891;50.204;8.132;2023-02-15T03:28:28;99492.97;;;0.77;100.00
59106;BME280;44891;50.204;8.132;2023-02-15T03:32:33;99486.03;;;0.78;100.00
59106;BME280;44891;50.204;8.132;2023-02-15T03:36:38;99484.22;;;0.88;100.00
59106;BME280;44891;50.204;8.132;2023-02-15T03:40:44;99478.94;;;0.80;100.00
59106;BME280;44891;50.204;8.132;2023-02-15T03:45:07;99473.88;;;0.88;100.00
59106;BME280;44891;50.204;8.132;2023-02-15T03:49:12;99468.88;;;0.77;100.00
59106;BME280;44891;50.204;8.132;2023-02-15T03:53:17;99472.72;;;0.73;100.00
59106;BME280;44891;50.204;8.132;2023-02-15T03:57:22;99472.44;;;0.76;100.00
59106;BME280;44891;50.204;8.132;2023-02-15T04:01:44;99453.91;;;0.80;100.00
59106;BME280;44891;50.204;8.132;2023-02-15T04:05:59;99461.91;;;0.87;100.00
59106;BME280;44891;50.204;8.132;2023-02-15T04:10:03;99470.31;;;0.89;100.00
59106;BME280;44891;50.204;8.132;2023-02-15T04:14:23;99468.19;;;1.02;100.00
59106;BME280;44891;50.204;8.132;2023-02-15T04:18:43;99465.16;;;0.89;100.00
59106;BME280;44891;50.204;8.132;2023-02-15T04:23:05;99471.19;;;0.80;100.00
59106;BME280;44891;50.204;8.132;2023-02-15T04:27:24;99479.31;;;0.85;100.00
59106;BME280;44891;50.204;8.132;2023-02-15T04:31:27;99481.78;;;0.87;100.00
59106;BME280;44891;50.204;8.132;2023-02-15T04:35:29;99481.09;;;0.85;100.00
59106;BME280;44891;50.204;8.132;2023-02-15T04:39:32;99483.44;;;0.78;100.00
59106;BME280;44891;50.204;8.132;2023-02-15T04:43:34;99471.69;;;0.84;100.00
59106;BME280;44891;50.204;8.132;2023-02-15T04:47:37;99474.53;;;0.90;100.00
59106;BME280;44891;50.204;8.132;2023-02-15T04:51:38;99470.22;;;0.81;100.00
59106;BME280;44891;50.204;8.132;2023-02-15T04:55:40;99473.81;;;0.70;100.00
59106;BME280;44891;50.204;8.132;2023-02-15T04:59:42;99466.78;;;0.63;100.00
59106;BME280;44891;50.204;8.132;2023-02-15T05:03:45;99461.91;;;0.60;100.00
59106;BME280;44891;50.204;8.132;2023-02-15T05:07:47;99461.38;;;0.56;100.00
59106;BME280;44891;50.204;8.132;2023-02-15T05:11:49;99464.38;;;0.79;100.00
59106;BME280;44891;50.204;8.132;2023-02-15T05:15:52;99454.50;;;0.65;100.00
59106;BME280;44891;50.204;8.132;2023-02-15T05:19:55;99457.50;;;0.70;100.00
59106;BME280;44891;50.204;8.132;2023-02-15T05:23:57;99450.69;;;0.69;100.00
59106;BME280;44891;50.204;8.132;2023-02-15T05:27:59;99440.81;;;0.82;100.00
59106;BME280;44891;50.204;8.132;2023-02-15T05:32:19;99440.16;;;0.98;100.00
59106;BME280;44891;50.204;8.132;2023-02-15T05:36:23;99441.56;;;0.92;100.00
59106;BME280;44891;50.204;8.132;2023-02-15T05:40:25;99443.66;;;1.06;100.00
59106;BME280;44891;50.204;8.132;2023-02-15T05:44:27;99441.94;;;0.97;100.00
59106;BME280;44891;50.204;8.132;2023-02-15T05:48:29;99438.47;;;0.89;100.00
59106;BME280;44891;50.204;8.132;2023-02-15T05:52:32;99447.19;;;1.05;100.00
59106;BME280;44891;50.204;8.132;2023-02-15T05:56:34;99443.31;;;1.19;100.00
59106;BME280;44891;50.204;8.132;2023-02-15T06:00:36;99448.47;;;1.19;100.00
59106;BME280;44891;50.204;8.132;2023-02-15T06:04:38;99451.19;;;1.18;100.00
59106;BME280;44891;50.204;8.132;2023-02-15T06:08:41;99448.72;;;1.26;100.00
59106;BME280;44891;50.204;8.132;2023-02-15T06:12:43;99460.97;;;1.24;100.00
59106;BME280;44891;50.204;8.132;2023-02-15T06:16:46;99454.91;;;1.33;100.00
59106;BME280;44891;50.204;8.132;2023-02-15T06:20:48;99459.28;;;1.32;100.00
59106;BME280;44891;50.204;8.132;2023-02-15T06:24:51;99462.50;;;1.17;100.00
59106;BME280;44891;50.204;8.132;2023-02-15T06:28:53;99462.94;;;1.12;100.00
59106;BME280;44891;50.204;8.132;2023-02-15T06:32:55;99464.72;;;1.12;100.00
59106;BME280;44891;50.204;8.132;2023-02-15T06:36:57;99463.16;;;1.19;100.00
59106;BME280;44891;50.204;8.132;2023-02-15T06:41:01;99469.19;;;1.19;100.00
59106;BME280;44891;50.204;8.132;2023-02-15T06:45:03;99469.25;;;1.27;100.00
59106;BME280;44891;50.204;8.132;2023-02-15T06:49:05;99478.09;;;1.25;100.00
59106;BME280;44891;50.204;8.132;2023-02-15T06:53:07;99480.69;;;1.25;100.00
59106;BME280;44891;50.204;8.132;2023-02-15T06:57:10;99485.88;;;1.25;100.00
59106;BME280;44891;50.204;8.132;2023-02-15T07:01:12;99478.38;;;1.04;100.00
59106;BME280;44891;50.204;8.132;2023-02-15T07:05:14;99470.00;;;0.92;100.00
59106;BME280;44891;50.204;8.132;2023-02-15T07:09:16;99476.72;;;0.85;100.00
59106;BME280;44891;50.204;8.132;2023-02-15T07:13:19;99477.34;;;0.97;100.00
59106;BME280;44891;50.204;8.132;2023-02-15T07:17:21;99478.38;;;0.86;100.00
59106;BME280;44891;50.204;8.132;2023-02-15T07:21:23;99475.69;;;0.78;100.00
59106;BME280;44891;50.204;8.132;2023-02-15T07:25:25;99477.41;;;0.87;100.00
59106;BME280;44891;50.204;8.132;2023-02-15T07:29:28;99473.78;;;0.80;100.00
59106;BME280;44891;50.204;8.132;2023-02-15T07:33:31;99467.09;;;0.77;100.00
59106;BME280;44891;50.204;8.132;2023-02-15T07:37:32;99466.38;;;0.85;100.00
59106;BME280;44891;50.204;8.132;2023-02-15T07:41:34;99463.91;;;0.93;100.00
59106;BME280;44891;50.204;8.132;2023-02-15T07:45:46;99456.22;;;1.01;100.00
59106;BME280;44891;50.204;8.132;2023-02-15T07:49:47;99461.94;;;1.23;100.00
59106;BME280;44891;50.204;8.132;2023-02-15T07:53:49;99463.78;;;1.13;100.00
59106;BME280;44891;50.204;8.132;2023-02-15T07:57:52;99474.59;;;1.26;100.00
59106;BME280;44891;50.204;8.132;2023-02-15T08:01:55;99479.03;;;1.33;100.00
59106;BME280;44891;50.204;8.132;2023-02-15T08:05:58;99478.06;;;1.52;100.00
59106;BME280;44891;50.204;8.132;2023-02-15T08:10:00;99467.41;;;1.55;100.00
59106;BME280;44891;50.204;8.132;2023-02-15T08:14:03;99459.50;;;1.39;100.00
59106;BME280;44891;50.204;8.132;2023-02-15T08:18:06;99458.81;;;1.55;100.00
59106;BME280;44891;50.204;8.132;2023-02-15T08:22:10;99447.44;;;1.66;100.00
59106;BME280;44891;50.204;8.132;2023-02-15T08:26:13;99446.34;;;1.76;100.00
59106;BME280;44891;50.204;8.132;2023-02-15T08:30:15;99445.13;;;1.62;100.00
59106;BME280;44891;50.204;8.132;2023-02-15T08:34:19;99436.97;;;1.75;100.00
59106;BME280;44891;50.204;8.132;2023-02-15T08:38:21;99438.59;;;1.58;100.00
59106;BME280;44891;50.204;8.132;2023-02-15T08:42:23;99441.72;;;1.44;100.00
59106;BME280;44891;50.204;8.132;2023-02-15T08:46:25;99427.53;;;1.48;100.00
59106;BME280;44891;50.204;8.132;2023-02-15T08:50:29;99428.25;;;1.58;100.00
59106;BME280;44891;50.204;8.132;2023-02-15T08:54:31;99428.00;;;1.70;100.00
59106;BME280;44891;50.204;8.132;2023-02-15T08:58:33;99417.25;;;1.82;100.00
59106;BME280;44891;50.204;8.132;2023-02-15T09:02:34;99408.06;;;1.88;100.00
59106;BME280;44891;50.204;8.132;2023-02-15T09:06:38;99392.22;;;1.91;99.07
59106;BME280;44891;50.204;8.132;2023-02-15T09:10:41;99396.28;;;1.94;99.05
59106;BME280;44891;50.204;8.132;2023-02-15T09:14:42;99406.50;;;1.95;99.56
59106;BME280;44891;50.204;8.132;2023-02-15T09:18:44;99405.50;;;2.22;98.98
59106;BME280;44891;50.204;8.132;2023-02-15T09:22:47;99400.59;;;2.45;96.49
59106;BME280;44891;50.204;8.132;2023-02-15T09:26:49;99398.03;;;2.69;95.79
59106;BME280;44891;50.204;8.132;2023-02-15T09:30:51;99397.34;;;3.18;90.99
59106;BME280;44891;50.204;8.132;2023-02-15T09:34:53;99395.69;;;3.49;88.60
59106;BME280;44891;50.204;8.132;2023-02-15T09:38:57;99396.81;;;3.79;87.07
59106;BME280;44891;50.204;8.132;2023-02-15T09:43:07;99401.41;;;4.64;83.46
59106;BME280;44891;50.204;8.132;2023-02-15T09:51:35;99407.41;;;4.96;78.11
59106;BME280;44891;50.204;8.132;2023-02-15T09:55:42;99417.56;;;4.51;80.37
59106;BME280;44891;50.204;8.132;2023-02-15T09:59:48;99417.66;;;4.19;80.69
59106;BME280;44891;50.204;8.132;2023-02-15T10:03:57;99417.25;;;3.91;82.93
59106;BME280;44891;50.204;8.132;2023-02-15T10:08:15;99425.19;;;3.89;82.85
59106;BME280;44891;50.204;8.132;2023-02-15T10:12:27;99424.41;;;4.75;78.83
59106;BME280;44891;50.204;8.132;2023-02-15T10:16:36;99420.34;;;5.87;75.98
59106;BME280;44891;50.204;8.132;2023-02-15T10:20:43;99432.44;;;5.65;73.68
59106;BME280;44891;50.204;8.132;2023-02-15T10:25:04;99434.19;;;5.27;74.72
59106;BME280;44891;50.204;8.132;2023-02-15T10:29:16;99425.88;;;6.07;70.58
59106;BME280;44891;50.204;8.132;2023-02-15T10:33:29;99419.69;;;6.89;66.88
59106;BME280;44891;50.204;8.132;2023-02-15T10:37:36;99415.34;;;5.25;72.52
59106;BME280;44891;50.204;8.132;2023-02-15T10:41:43;99419.00;;;4.54;76.30
59106;BME280;44891;50.204;8.132;2023-02-15T10:45:51;99423.84;;;4.65;76.97
59106;BME280;44891;50.204;8.132;2023-02-15T10:54:20;99416.94;;;8.58;61.27
59106;BME280;44891;50.204;8.132;2023-02-15T10:58:28;99419.03;;;7.72;63.04
59106;BME280;44891;50.204;8.132;2023-02-15T11:02:40;99420.47;;;7.75;62.61
59106;BME280;44891;50.204;8.132;2023-02-15T11:06:46;99419.31;;;6.56;66.65
59106;BME280;44891;50.204;8.132;2023-02-15T11:10:52;99411.69;;;5.72;70.14
59106;BME280;44891;50.204;8.132;2023-02-15T11:14:57;99413.78;;;5.16;73.86
59106;BME280;44891;50.204;8.132;2023-02-15T11:19:03;99404.81;;;4.64;76.50
59106;BME280;44891;50.204;8.132;2023-02-15T11:23:10;99392.34;;;4.52;79.21
59106;BME280;44891;50.204;8.132;2023-02-15T11:27:19;99393.69;;;4.40;80.27
59106;BME280;44891;50.204;8.132;2023-02-15T11:31:22;99389.13;;;5.04;78.02
59106;BME280;44891;50.204;8.132;2023-02-15T11:35:27;99390.69;;;4.90;77.36
59106;BME280;44891;50.204;8.132;2023-02-15T11:39:31;99379.09;;;4.70;78.82
59106;BME280;44891;50.204;8.132;2023-02-15T11:43:34;99377.41;;;4.46;80.47
59106;BME280;44891;50.204;8.132;2023-02-15T11:47:37;99365.44;;;5.36;77.73
59106;BME280;44891;50.204;8.132;2023-02-15T11:51:40;99362.16;;;8.57;64.53
59106;BME280;44891;50.204;8.132;2023-02-15T11:55:43;99341.25;;;13.42;48.84
59106;BME280;44891;50.204;8.132;2023-02-15T11:59:46;99337.41;;;15.22;43.59
59106;BME280;44891;50.204;8.132;2023-02-15T12:03:51;99335.63;;;13.39;46.67
59106;BME280;44891;50.204;8.132;2023-02-15T12:07:55;99333.75;;;12.25;49.54
59106;BME280;44891;50.204;8.132;2023-02-15T12:16:15;99326.06;;;14.36;45.34
59106;BME280;44891;50.204;8.132;2023-02-15T12:20:21;99325.25;;;15.77;42.64
59106;BME280;44891;50.204;8.132;2023-02-15T12:24:28;99311.81;;;16.71;39.83
59106;BME280;44891;50.204;8.132;2023-02-15T12:28:31;99314.91;;;16.68;39.78
59106;BME280;44891;50.204;8.132;2023-02-15T12:32:35;99318.81;;;16.34;39.94
59106;BME280;44891;50.204;8.132;2023-02-15T12:36:40;99315.28;;;16.77;39.47
59106;BME280;44891;50.204;8.132;2023-02-15T12:40:46;99304.50;;;16.35;40.17
59106;BME280;44891;50.204;8.132;2023-02-15T12:44:58;99303.53;;;14.74;42.82
59106;BME280;44891;50.204;8.132;2023-02-15T12:49:04;99295.69;;;13.58;44.92
59106;BME280;44891;50.204;8.132;2023-02-15T12:53:13;99285.34;;;13.57;45.73
59106;BME280;44891;50.204;8.132;2023-02-15T12:57:22;99274.38;;;14.40;43.90
59106;BME280;44891;50.204;8.132;2023-02-15T13:01:26;99259.06;;;15.21;41.93
59106;BME280;44891;50.204;8.132;2023-02-15T13:05:34;99268.63;;;17.55;37.58
59106;BME280;44891;50.204;8.132;2023-02-15T13:09:37;99258.66;;;19.07;35.30
59106;BME280;44891;50.204;8.132;2023-02-15T13:13:47;99257.06;;;19.00;35.37
59106;BME280;44891;50.204;8.132;2023-02-15T13:17:52;99253.03;;;19.28;34.53
59106;BME280;44891;50.204;8.132;2023-02-15T13:21:54;99255.72;;;18.98;34.96
59106;BME280;44891;50.204;8.132;2023-02-15T13:25:57;99258.06;;;17.23;37.35
59106;BME280;44891;50.204;8.132;2023-02-15T13:30:02;99252.00;;;16.37;38.85
59106;BME280;44891;50.204;8.132;2023-02-15T13:34:07;99242.88;;;17.13;37.24
59106;BME280;44891;50.204;8.132;2023-02-15T13:38:23;99233.81;;;17.52;36.76
59106;BME280;44891;50.204;8.132;2023-02-15T13:42:31;99224.00;;;18.40;35.78
59106;BME280;44891;50.204;8.132;2023-02-15T13:46:42;99226.69;;;17.67;36.34
59106;BME280;44891;50.204;8.132;2023-02-15T13:50:51;99217.22;;;17.29;37.46
59106;BME280;44891;50.204;8.132;2023-02-15T13:55:03;99216.03;;;18.61;35.68
59106;BME280;44891;50.204;8.132;2023-02-15T14:03:35;99212.38;;;16.79;38.31
59106;BME280;44891;50.204;8.132;2023-02-15T14:07:47;99200.97;;;17.21;37.86
59106;BME280;44891;50.204;8.132;2023-02-15T14:11:53;99200.53;;;18.02;36.23
59106;BME280;44891;50.204;8.132;2023-02-15T14:15:57;99190.69;;;17.34;37.31
59106;BME280;44891;50.204;8.132;2023-02-15T14:20:04;99203.31;;;17.59;36.64
59106;BME280;44891;50.204;8.132;2023-02-15T14:24:14;99188.28;;;19.38;34.25
59106;BME280;44891;50.204;8.132;2023-02-15T14:28:19;99198.72;;;19.24;34.09
59106;BME280;44891;50.204;8.132;2023-02-15T14:32:25;99207.69;;;16.59;38.23
59106;BME280;44891;50.204;8.132;2023-02-15T14:36:30;99210.41;;;15.06;41.25
59106;BME280;44891;50.204;8.132;2023-02-15T14:40:36;99213.06;;;10.38;51.94
59106;BME280;44891;50.204;8.132;2023-02-15T14:44:57;99223.34;;;7.76;61.48
59106;BME280;44891;50.204;8.132;2023-02-15T14:49:04;99211.25;;;6.49;68.13
59106;BME280;44891;50.204;8.132;2023-02-15T14:53:24;99212.28;;;5.46;73.08
59106;BME280;44891;50.204;8.132;2023-02-15T14:57:36;99213.19;;;4.72;78.10
59106;BME280;44891;50.204;8.132;2023-02-15T15:01:38;99209.97;;;4.24;81.75
59106;BME280;44891;50.204;8.132;2023-02-15T15:05:46;99206.16;;;4.12;83.79
59106;BME280;44891;50.204;8.132;2023-02-15T15:09:59;99207.53;;;3.99;84.76
59106;BME280;44891;50.204;8.132;2023-02-15T15:14:01;99206.28;;;3.87;86.31
59106;BME280;44891;50.204;8.132;2023-02-15T15:18:04;99214.44;;;3.76;87.33
59106;BME280;44891;50.204;8.132;2023-02-15T15:22:12;99221.25;;;3.85;87.30
59106;BME280;44891;50.204;8.132;2023-02-15T15:26:30;99219.53;;;4.00;86.44
59106;BME280;44891;50.204;8.132;2023-02-15T15:35:04;99212.00;;;3.35;90.28
59106;BME280;44891;50.204;8.132;2023-02-15T15:39:17;99214.78;;;3.34;90.20
59106;BME280;44891;50.204;8.132;2023-02-15T15:43:36;99203.16;;;2.97;92.43
59106;BME280;44891;50.204;8.132;2023-02-15T15:47:49;99207.72;;;2.95;93.02
59106;BME280;44891;50.204;8.132;2023-02-15T15:51:54;99206.25;;;3.00;92.10
59106;BME280;44891;50.204;8.132;2023-02-15T15:55:57;99210.13;;;2.96;92.31
59106;BME280;44891;50.204;8.132;2023-02-15T16:00:02;99213.84;;;3.10;91.68
59106;BME280;44891;50.204;8.132;2023-02-15T16:04:13;99208.66;;;3.10;90.68
59106;BME280;44891;50.204;8.132;2023-02-15T16:08:16;99209.19;;;2.97;91.80
59106;BME280;44891;50.204;8.132;2023-02-15T16:12:27;99209.84;;;2.91;91.86
59106;BME280;44891;50.204;8.132;2023-02-15T16:16:31;99203.34;;;2.87;92.49
59106;BME280;44891;50.204;8.132;2023-02-15T16:20:33;99209.66;;;3.01;91.61
59106;BME280;44891;50.204;8.132;2023-02-15T16:24:46;99209.69;;;2.93;91.38
59106;BME280;44891;50.204;8.132;2023-02-15T16:28:53;99209.34;;;2.96;91.13
59106;BME280;44891;50.204;8.132;2023-02-15T16:33:04;99214.22;;;2.83;91.43
59106;BME280;44891;50.204;8.132;2023-02-15T16:37:13;99212.13;;;2.86;91.31
59106;BME280;44891;50.204;8.132;2023-02-15T16:41:15;99212.63;;;2.65;91.94
59106;BME280;44891;50.204;8.132;2023-02-15T16:45:19;99218.28;;;2.61;92.07
59106;BME280;44891;50.204;8.132;2023-02-15T16:49:25;99219.91;;;2.62;91.25
59106;BME280;44891;50.204;8.132;2023-02-15T16:53:28;99224.94;;;2.39;92.18
59106;BME280;44891;50.204;8.132;2023-02-15T16:57:31;99230.88;;;2.23;93.45
59106;BME280;44891;50.204;8.132;2023-02-15T17:01:34;99235.59;;;2.28;93.93
59106;BME280;44891;50.204;8.132;2023-02-15T17:05:41;99237.03;;;2.14;94.92
59106;BME280;44891;50.204;8.132;2023-02-15T17:09:49;99237.50;;;2.09;95.45
59106;BME280;44891;50.204;8.132;2023-02-15T17:18:26;99233.53;;;1.81;95.68
59106;BME280;44891;50.204;8.132;2023-02-15T17:22:30;99233.09;;;1.94;95.84
59106;BME280;44891;50.204;8.132;2023-02-15T17:26:32;99231.56;;;1.75;96.12
59106;BME280;44891;50.204;8.132;2023-02-15T17:30:35;99227.59;;;1.97;95.07
59106;BME280;44891;50.204;8.132;2023-02-15T17:34:49;99235.88;;;2.00;94.19
59106;BME280;44891;50.204;8.132;2023-02-15T17:43:13;99234.06;;;1.93;94.17
59106;BME280;44891;50.204;8.132;2023-02-15T17:47:15;99226.41;;;1.83;94.78
59106;BME280;44891;50.204;8.132;2023-02-15T17:51:18;99225.94;;;1.79;95.50
59106;BME280;44891;50.204;8.132;2023-02-15T17:55:21;99221.91;;;1.93;94.74
59106;BME280;44891;50.204;8.132;2023-02-15T17:59:43;99220.25;;;1.84;95.36
59106;BME280;44891;50.204;8.132;2023-02-15T18:04:13;99228.78;;;1.68;95.38
59106;BME280;44891;50.204;8.132;2023-02-15T18:08:32;99213.22;;;1.60;96.17
59106;BME280;44891;50.204;8.132;2023-02-15T18:12:52;99217.09;;;1.64;96.82
59106;BME280;44891;50.204;8.132;2023-02-15T18:16:55;99208.19;;;1.58;97.52
59106;BME280;44891;50.204;8.132;2023-02-15T18:20:57;99203.19;;;1.65;96.99
59106;BME280;44891;50.204;8.132;2023-02-15T18:24:58;99213.41;;;1.67;97.70
59106;BME280;44891;50.204;8.132;2023-02-15T18:29:00;99206.81;;;1.72;97.88
59106;BME280;44891;50.204;8.132;2023-02-15T18:33:04;99201.75;;;1.71;98.15
59106;BME280;44891;50.204;8.132;2023-02-15T18:37:06;99207.78;;;1.79;98.08
59106;BME280;44891;50.204;8.132;2023-02-15T18:41:14;99215.41;;;1.81;97.31
59106;BME280;44891;50.204;8.132;2023-02-15T18:45:17;99207.78;;;1.79;96.60
59106;BME280;44891;50.204;8.132;2023-02-15T18:49:21;99216.09;;;1.49;98.41
59106;BME280;44891;50.204;8.132;2023-02-15T18:53:22;99213.94;;;1.44;99.45
59106;BME280;44891;50.204;8.132;2023-02-15T18:57:24;99218.25;;;1.61;98.95
59106;BME280;44891;50.204;8.132;2023-02-15T19:01:28;99224.59;;;1.67;96.20
59106;BME280;44891;50.204;8.132;2023-02-15T19:05:31;99223.25;;;1.63;94.94
59106;BME280;44891;50.204;8.132;2023-02-15T19:09:33;99220.06;;;1.35;98.04
59106;BME280;44891;50.204;8.132;2023-02-15T19:13:35;99227.75;;;1.53;97.15
59106;BME280;44891;50.204;8.132;2023-02-15T19:17:37;99231.25;;;1.44;95.81
59106;BME280;44891;50.204;8.132;2023-02-15T19:21:40;99223.19;;;1.47;95.74
59106;BME280;44891;50.204;8.132;2023-02-15T19:25:42;99230.44;;;1.43;96.03
59106;BME280;44891;50.204;8.132;2023-02-15T19:29:44;99225.97;;;1.53;94.59
59106;BME280;44891;50.204;8.132;2023-02-15T19:33:46;99233.41;;;1.48;95.24
59106;BME280;44891;50.204;8.132;2023-02-15T19:37:50;99235.84;;;1.24;96.29
59106;BME280;44891;50.204;8.132;2023-02-15T19:41:52;99250.31;;;1.08;99.08
59106;BME280;44891;50.204;8.132;2023-02-15T19:45:54;99243.59;;;0.98;99.58
59106;BME280;44891;50.204;8.132;2023-02-15T19:49:56;99249.19;;;1.11;99.12
59106;BME280;44891;50.204;8.132;2023-02-15T19:54:04;99244.63;;;1.05;99.60
59106;BME280;44891;50.204;8.132;2023-02-15T19:58:10;99239.53;;;1.13;98.64
59106;BME280;44891;50.204;8.132;2023-02-15T20:02:12;99239.16;;;1.08;99.83
59106;BME280;44891;50.204;8.132;2023-02-15T20:06:15;99246.72;;;1.01;100.00
59106;BME280;44891;50.204;8.132;2023-02-15T20:10:19;99238.03;;;1.11;98.88
59106;BME280;44891;50.204;8.132;2023-02-15T20:14:21;99237.66;;;1.05;97.81
59106;BME280;44891;50.204;8.132;2023-02-15T20:18:24;99234.38;;;1.21;97.46
59106;BME280;44891;50.204;8.132;2023-02-15T20:22:26;99225.47;;;1.16;96.83
59106;BME280;44891;50.204;8.132;2023-02-15T20:26:30;99237.41;;;1.17;96.60
59106;BME280;44891;50.204;8.132;2023-02-15T20:30:32;99230.94;;;1.13;97.04
59106;BME280;44891;50.204;8.132;2023-02-15T20:34:34;99225.97;;;1.19;97.43
59106;BME280;44891;50.204;8.132;2023-02-15T20:38:36;99234.38;;;1.21;97.50
59106;BME280;44891;50.204;8.132;2023-02-15T20:42:39;99226.41;;;1.15;96.97
59106;BME280;44891;50.204;8.132;2023-02-15T20:46:41;99226.25;;;1.16;96.71
59106;BME280;44891;50.204;8.132;2023-02-15T20:50:43;99220.88;;;1.09;97.27
59106;BME280;44891;50.204;8.132;2023-02-15T20:54:44;99212.16;;;1.11;98.37
59106;BME280;44891;50.204;8.132;2023-02-15T20:58:48;99166.22;;;0.78;97.27
59106;BME280;44891;50.204;8.132;2023-02-15T21:02:51;99223.44;;;1.01;98.76
59106;BME280;44891;50.204;8.132;2023-02-15T21:06:54;99233.16;;;1.07;99.27
59106;BME280;44891;50.204;8.132;2023-02-15T21:10:56;99232.97;;;1.01;99.52
59106;BME280;44891;50.204;8.132;2023-02-15T21:15:00;99225.25;;;0.83;100.00
59106;BME280;44891;50.204;8.132;2023-02-15T21:19:05;99233.56;;;0.95;100.00
59106;BME280;44891;50.204;8.132;2023-02-15T21:23:12;99231.63;;;0.97;100.00
59106;BME280;44891;50.204;8.132;2023-02-15T21:27:15;99226.41;;;0.89;100.00
59106;BME280;44891;50.204;8.132;2023-02-15T21:31:19;99232.75;;;0.94;99.38
59106;BME280;44891;50.204;8.132;2023-02-15T21:35:22;99243.06;;;0.86;98.40
59106;BME280;44891;50.204;8.132;2023-02-15T21:39:24;99255.56;;;0.73;99.34
59106;BME280;44891;50.204;8.132;2023-02-15T21:43:26;99246.91;;;0.64;100.00
59106;BME280;44891;50.204;8.132;2023-02-15T21:47:47;99244.09;;;0.75;97.84
59106;BME280;44891;50.204;8.132;2023-02-15T21:51:51;99241.81;;;0.54;97.56
59106;BME280;44891;50.204;8.132;2023-02-15T21:56:11;99238.72;;;0.51;98.03
59106;BME280;44891;50.204;8.132;2023-02-15T22:00:15;99242.91;;;0.52;97.92
59106;BME280;44891;50.204;8.132;2023-02-15T22:04:20;99237.38;;;0.29;98.22
59106;BME280;44891;50.204;8.132;2023-02-15T22:08:23;99234.38;;;0.34;99.07
59106;BME280;44891;50.204;8.132;2023-02-15T22:12:25;99233.03;;;0.47;97.03
59106;BME280;44891;50.204;8.132;2023-02-15T22:16:28;99222.78;;;0.20;96.47